createdAt,value
2023-02-01T00:01:25.936Z,2.97
2023-02-01T00:03:52.655Z,2.30
2023-02-01T00:06:19.438Z,2.70
2023-02-01T00:08:46.133Z,2.20
2023-02-01T00:11:15.534Z,2.47
2023-02-01T00:13:46.912Z,2.23
2023-02-01T00:16:19.575Z,2.37
2023-02-01T00:18:50.670Z,2.20
2023-02-01T00:21:20.563Z,2.27
2023-02-01T00:23:47.477Z,2.30
2023-02-01T00:26:34.640Z,2.30
2023-02-01T00:29:03.414Z,2.30
2023-02-01T00:31:35.119Z,2.17
2023-02-01T00:34:01.838Z,2.13
2023-02-01T00:36:29.338Z,1.80
2023-02-01T00:38:56.524Z,1.90
2023-02-01T00:41:30.486Z,1.80
2023-02-01T00:43:57.309Z,1.80
2023-02-01T00:46:26.570Z,2.00
2023-02-01T00:48:53.326Z,2.17
2023-02-01T00:51:23.049Z,1.77
2023-02-01T00:53:53.081Z,2.00
2023-02-01T00:56:22.407Z,1.90
2023-02-01T00:58:49.125Z,1.80
2023-02-01T01:01:25.006Z,1.73
2023-02-01T01:03:54.801Z,1.83
2023-02-01T01:06:24.329Z,1.60
2023-02-01T01:08:55.937Z,1.80
2023-02-01T01:11:29.098Z,1.73
2023-02-01T01:14:00.114Z,1.80
2023-02-01T01:16:28.994Z,1.60
2023-02-01T01:18:59.461Z,1.73
2023-02-01T01:21:29.017Z,1.60
2023-02-01T01:23:55.908Z,1.33
2023-02-01T01:26:28.821Z,1.53
2023-02-01T01:28:59.919Z,1.37
2023-02-01T01:31:27.528Z,1.40
2023-02-01T01:33:56.748Z,1.50
2023-02-01T01:36:24.454Z,1.33
2023-02-01T01:38:52.079Z,1.67
2023-02-01T01:41:25.206Z,1.40
2023-02-01T01:43:59.781Z,1.30
2023-02-01T01:46:35.592Z,1.57
2023-02-01T01:49:15.976Z,1.33
2023-02-01T01:51:55.776Z,1.30
2023-02-01T01:54:35.633Z,1.20
2023-02-01T01:57:07.510Z,1.30
2023-02-01T01:59:37.464Z,1.40
2023-02-01T02:02:05.585Z,1.40
2023-02-01T02:04:34.513Z,1.13
2023-02-01T02:07:06.208Z,0.93
2023-02-01T02:09:35.093Z,1.17
2023-02-01T02:12:03.874Z,1.20
2023-02-01T02:14:31.372Z,1.30
2023-02-01T02:17:37.619Z,1.30
2023-02-01T02:20:21.159Z,1.30
2023-02-01T02:23:20.958Z,1.33
2023-02-01T02:26:05.342Z,1.20
2023-02-01T02:28:49.743Z,1.37
2023-02-01T02:31:53.697Z,1.57
2023-02-01T02:34:35.841Z,1.13
2023-02-01T02:37:27.093Z,1.17
2023-02-01T02:39:59.739Z,1.43
2023-02-01T02:43:01.621Z,1.40
2023-02-01T02:45:52.937Z,1.30
2023-02-01T02:48:29.960Z,1.37
2023-02-01T02:51:31.999Z,1.20
2023-02-01T02:54:28.859Z,1.27
2023-02-01T02:57:16.287Z,1.20
2023-02-01T03:00:04.314Z,1.20
2023-02-01T03:02:53.230Z,1.10
2023-02-01T03:05:21.761Z,1.30
2023-02-01T03:07:51.202Z,1.27
2023-02-01T03:10:35.718Z,1.23
2023-02-01T03:13:08.618Z,1.17
2023-02-01T03:15:52.322Z,1.00
2023-02-01T03:18:33.752Z,1.10
2023-02-01T03:21:07.272Z,1.10
2023-02-01T03:23:39.294Z,1.03
2023-02-01T03:26:10.967Z,1.30
2023-02-01T03:28:43.044Z,1.10
2023-02-01T03:31:10.266Z,0.80
2023-02-01T03:33:39.329Z,1.20
2023-02-01T03:36:25.887Z,1.00
2023-02-01T03:39:36.579Z,1.13
2023-02-01T03:42:12.407Z,1.13
2023-02-01T03:44:47.961Z,0.97
2023-02-01T03:47:24.880Z,1.33
2023-02-01T03:49:58.812Z,1.13
2023-02-01T03:52:47.400Z,1.13
2023-02-01T03:55:17.335Z,1.23
2023-02-01T03:57:57.152Z,1.13
2023-02-01T04:00:30.688Z,1.43
2023-02-01T04:02:57.463Z,1.20
2023-02-01T04:05:26.627Z,1.20
2023-02-01T04:07:55.642Z,1.20
2023-02-01T04:10:25.161Z,1.40
2023-02-01T04:12:55.184Z,1.17
2023-02-01T04:15:21.806Z,1.00
2023-02-01T04:17:48.451Z,1.30
2023-02-01T04:20:15.149Z,1.10
2023-02-01T04:22:41.805Z,1.10
2023-02-01T04:25:11.566Z,1.07
2023-02-01T04:27:42.886Z,1.00
2023-02-01T04:30:10.850Z,0.90
2023-02-01T04:32:38.299Z,1.00
2023-02-01T04:35:08.286Z,1.30
2023-02-01T04:37:35.496Z,1.30
2023-02-01T04:40:04.621Z,1.20
2023-02-01T04:42:33.722Z,0.97
2023-02-01T04:45:05.160Z,1.10
2023-02-01T04:47:31.870Z,1.00
2023-02-01T04:50:00.727Z,1.20
2023-02-01T04:52:29.638Z,1.20
2023-02-01T04:54:59.335Z,1.07
2023-02-01T04:57:28.656Z,1.13
2023-02-01T04:59:57.803Z,1.10
2023-02-01T05:02:24.551Z,1.10
2023-02-01T05:04:51.549Z,1.10
2023-02-01T05:07:20.461Z,1.20
2023-02-01T05:09:47.079Z,1.07
2023-02-01T05:12:34.904Z,1.40
2023-02-01T05:15:01.617Z,1.10
2023-02-01T05:17:28.415Z,1.30
2023-02-01T05:19:55.063Z,1.17
2023-02-01T05:22:21.804Z,1.00
2023-02-01T05:24:50.747Z,0.93
2023-02-01T05:27:17.403Z,1.23
2023-02-01T05:29:46.226Z,1.30
2023-02-01T05:32:22.192Z,1.30
2023-02-01T05:34:49.823Z,1.20
2023-02-01T05:37:21.139Z,1.40
2023-02-01T05:39:47.905Z,1.50
2023-02-01T05:42:14.590Z,1.37
2023-02-01T05:44:41.265Z,1.20
2023-02-01T05:47:08.286Z,1.40
2023-02-01T05:49:37.222Z,1.37
2023-02-01T05:52:04.066Z,1.40
2023-02-01T05:54:33.280Z,1.30
2023-02-01T05:57:02.475Z,1.33
2023-02-01T05:59:31.470Z,1.23
2023-02-01T06:01:58.173Z,1.40
2023-02-01T06:04:27.269Z,1.30
2023-02-01T06:06:54.080Z,1.53
2023-02-01T06:11:48.646Z,1.33
2023-02-01T06:14:15.383Z,1.47
2023-02-01T06:16:42.124Z,1.40
2023-02-01T06:19:11.134Z,1.47
2023-02-01T06:21:40.137Z,1.33
2023-02-01T06:24:07.190Z,1.73
2023-02-01T06:26:34.229Z,1.60
2023-02-01T06:29:03.163Z,1.60
2023-02-01T06:31:30.110Z,1.50
2023-02-01T06:33:59.196Z,1.50
2023-02-01T06:36:28.120Z,1.63
2023-02-01T06:38:56.062Z,2.17
2023-02-01T06:41:22.981Z,1.70
2023-02-01T06:43:49.926Z,1.83
2023-02-01T06:46:19.274Z,1.97
2023-02-01T06:48:48.534Z,1.80
2023-02-01T06:51:24.152Z,2.00
2023-02-01T06:53:53.355Z,2.10
2023-02-01T06:56:23.195Z,2.50
2023-02-01T06:58:52.764Z,2.00
2023-02-01T07:01:19.849Z,2.60
2023-02-01T07:03:53.105Z,1.73
2023-02-01T07:06:20.407Z,2.00
2023-02-01T07:08:49.350Z,2.13
2023-02-01T07:11:16.977Z,2.37
2023-02-01T07:13:45.860Z,2.53
2023-02-01T07:16:18.819Z,1.97
2023-02-01T07:18:48.436Z,2.07
2023-02-01T07:21:15.086Z,2.03
2023-02-01T07:23:41.774Z,2.10
2023-02-01T07:26:10.473Z,2.20
2023-02-01T07:28:38.518Z,2.25
2023-02-01T07:31:19.044Z,2.50
2023-02-01T07:33:46.133Z,2.40
2023-02-01T07:36:15.228Z,2.03
2023-02-01T07:38:42.545Z,1.93
2023-02-01T07:41:10.061Z,2.42
2023-02-01T07:43:37.284Z,2.43
2023-02-01T07:46:06.328Z,2.67
2023-02-01T07:48:34.951Z,2.37
2023-02-01T07:51:02.826Z,2.37
2023-02-01T07:53:30.706Z,2.40
2023-02-01T07:56:00.230Z,2.50
2023-02-01T07:58:28.021Z,2.40
2023-02-01T08:01:13.728Z,2.70
2023-02-01T08:03:42.995Z,2.50
2023-02-01T08:06:09.835Z,3.10
2023-02-01T08:08:39.056Z,2.70
2023-02-01T08:11:10.571Z,2.90
2023-02-01T08:13:37.496Z,3.27
2023-02-01T08:16:09.294Z,2.50
2023-02-01T08:18:37.535Z,3.07
2023-02-01T08:21:09.003Z,2.00
2023-02-01T08:23:37.171Z,2.80
2023-02-01T08:26:15.572Z,2.50
2023-02-01T08:28:46.110Z,2.70
2023-02-01T08:31:18.366Z,2.87
2023-02-01T08:33:49.151Z,2.83
2023-02-01T08:36:15.802Z,2.67
2023-02-01T08:38:42.872Z,2.70
2023-02-01T08:41:17.755Z,2.73
2023-02-01T08:43:44.769Z,2.57
2023-02-01T08:46:14.275Z,2.83
2023-02-01T08:48:41.437Z,2.87
2023-02-01T08:51:12.524Z,2.20
2023-02-01T08:53:43.705Z,2.30
2023-02-01T08:56:15.171Z,2.60
2023-02-01T08:58:42.452Z,2.20
2023-02-01T09:01:18.657Z,2.43
2023-02-01T09:03:45.614Z,2.43
2023-02-01T09:06:15.153Z,2.73
2023-02-01T09:08:42.370Z,2.70
2023-02-01T09:11:13.216Z,2.50
2023-02-01T09:13:39.860Z,2.37
2023-02-01T09:16:06.765Z,2.67
2023-02-01T09:18:33.563Z,2.90
2023-02-01T09:21:00.350Z,2.77
2023-02-01T09:23:29.567Z,2.60
2023-02-01T09:26:03.046Z,2.80
2023-02-01T09:28:30.164Z,2.80
2023-02-01T09:31:01.952Z,2.63
2023-02-01T09:33:29.779Z,2.73
2023-02-01T09:36:03.579Z,2.63
2023-02-01T09:38:33.116Z,3.53
2023-02-01T09:41:02.012Z,2.77
2023-02-01T09:44:07.084Z,2.33
2023-02-01T09:46:35.404Z,2.57
2023-02-01T09:49:10.590Z,3.10
2023-02-01T09:51:40.835Z,2.83
2023-02-01T09:54:22.965Z,3.10
2023-02-01T09:57:04.766Z,2.87
2023-02-01T10:00:10.650Z,2.20
2023-02-01T10:02:43.028Z,2.50
2023-02-01T10:05:15.768Z,2.47
2023-02-01T10:07:52.309Z,2.83
2023-02-01T10:10:26.967Z,3.05
2023-02-01T10:13:18.547Z,3.00
2023-02-01T10:16:17.772Z,2.70
2023-02-01T10:18:50.296Z,2.90
2023-02-01T10:21:40.620Z,2.90
2023-02-01T10:24:17.672Z,2.57
2023-02-01T10:26:52.158Z,2.97
2023-02-01T10:29:27.713Z,2.70
2023-02-01T10:31:58.594Z,2.50
2023-02-01T10:34:34.337Z,2.60
2023-02-01T10:37:25.731Z,2.90
2023-02-01T10:39:58.657Z,2.50
2023-02-01T10:42:30.171Z,2.60
2023-02-01T10:45:00.509Z,2.33
2023-02-01T10:47:31.939Z,2.23
2023-02-01T10:50:15.710Z,2.30
2023-02-01T10:52:53.036Z,2.67
2023-02-01T10:55:34.025Z,2.60
2023-02-01T10:58:15.023Z,2.80
2023-02-01T11:01:22.341Z,2.77
2023-02-01T11:03:56.396Z,3.10
2023-02-01T11:06:27.369Z,3.20
2023-02-01T11:08:57.473Z,2.73
2023-02-01T11:11:27.867Z,3.40
2023-02-01T11:14:15.267Z,2.93
2023-02-01T11:16:47.553Z,2.90
2023-02-01T11:19:16.500Z,2.57
2023-02-01T11:21:45.826Z,3.07
2023-02-01T11:24:36.905Z,3.10
2023-02-01T11:27:16.028Z,2.40
2023-02-01T11:29:57.304Z,2.83
2023-02-01T11:32:27.515Z,2.70
2023-02-01T11:34:58.645Z,2.27
2023-02-01T11:37:37.848Z,2.90
2023-02-01T11:40:26.311Z,3.00
2023-02-01T11:43:01.957Z,3.42
2023-02-01T11:45:31.537Z,2.60
2023-02-01T11:47:59.251Z,2.70
2023-02-01T11:50:34.622Z,3.17
2023-02-01T11:53:39.854Z,2.72
2023-02-01T11:56:15.185Z,2.50
2023-02-01T11:58:44.874Z,2.87
2023-02-01T12:01:17.702Z,2.43
2023-02-01T12:03:59.225Z,2.90
2023-02-01T12:06:54.694Z,2.50
2023-02-01T12:09:49.439Z,2.80
2023-02-01T12:12:30.122Z,3.20
2023-02-01T12:15:29.894Z,2.40
2023-02-01T12:18:37.643Z,2.50
2023-02-01T12:21:33.024Z,2.90
2023-02-01T12:24:28.843Z,2.80
2023-02-01T12:27:07.600Z,2.63
2023-02-01T12:29:51.741Z,2.77
2023-02-01T12:32:27.325Z,3.43
2023-02-01T12:35:19.392Z,2.70
2023-02-01T12:37:58.028Z,3.10
2023-02-01T12:40:59.020Z,3.10
2023-02-01T12:43:54.381Z,3.77
2023-02-01T12:46:34.138Z,3.23
2023-02-01T12:49:12.902Z,4.07
2023-02-01T12:51:45.216Z,3.17
2023-02-01T12:54:36.427Z,2.90
2023-02-01T12:57:09.407Z,3.60
2023-02-01T13:00:04.310Z,3.57
2023-02-01T13:03:10.457Z,3.33
2023-02-01T13:05:51.263Z,2.87
2023-02-01T13:08:25.269Z,3.00
2023-02-01T13:11:19.134Z,3.70
2023-02-01T13:14:22.472Z,3.40
2023-02-01T13:16:59.922Z,3.10
2023-02-01T13:19:58.294Z,3.40
2023-02-01T13:22:34.021Z,3.30
2023-02-01T13:25:17.223Z,3.40
2023-02-01T13:27:44.329Z,3.30
2023-02-01T13:30:20.932Z,4.83
2023-02-01T13:33:52.529Z,3.30
2023-02-01T13:36:10.697Z,4.30
2023-02-01T13:38:52.771Z,4.07
2023-02-01T13:41:30.412Z,3.73
2023-02-01T13:44:07.304Z,4.38
2023-02-01T13:46:46.422Z,3.60
2023-02-01T13:49:29.582Z,3.63
2023-02-01T13:52:00.190Z,3.40
2023-02-01T13:54:34.039Z,3.17
2023-02-01T13:57:02.400Z,3.30
2023-02-01T13:59:41.168Z,3.30
2023-02-01T14:02:41.656Z,3.50
2023-02-01T14:05:25.228Z,2.70
2023-02-01T14:08:10.470Z,3.10
2023-02-01T14:10:46.355Z,3.17
2023-02-01T14:13:31.072Z,3.65
2023-02-01T14:16:06.744Z,3.30
2023-02-01T14:18:38.903Z,3.30
2023-02-01T14:21:22.118Z,3.00
2023-02-01T14:24:01.191Z,2.85
2023-02-01T14:26:45.457Z,2.60
2023-02-01T14:29:21.756Z,2.80
2023-02-01T14:32:20.197Z,3.27
2023-02-01T14:34:55.496Z,2.60
2023-02-01T14:37:25.357Z,2.50
2023-02-01T14:40:24.161Z,1.90
2023-02-01T14:42:53.535Z,2.90
2023-02-01T14:45:20.834Z,2.67
2023-02-01T14:47:49.384Z,2.40
2023-02-01T14:50:33.161Z,2.40
2023-02-01T14:53:14.962Z,2.40
2023-02-01T14:55:50.562Z,2.70
2023-02-01T14:59:01.612Z,2.40
2023-02-01T15:01:32.509Z,2.03
2023-02-01T15:04:11.633Z,2.80
2023-02-01T15:06:48.348Z,2.50
2023-02-01T15:09:33.032Z,2.23
2023-02-01T15:12:11.753Z,2.58
2023-02-01T15:14:49.763Z,2.50
2023-02-01T15:17:28.447Z,2.73
2023-02-01T15:19:58.252Z,2.20
2023-02-01T15:22:29.115Z,2.30
2023-02-01T15:24:57.923Z,2.80
2023-02-01T15:27:25.627Z,2.90
2023-02-01T15:29:52.502Z,2.50
2023-02-01T15:32:40.038Z,2.60
2023-02-01T15:35:30.362Z,2.50
2023-02-01T15:38:25.905Z,2.90
2023-02-01T15:41:10.738Z,2.67
2023-02-01T15:43:41.409Z,2.20
2023-02-01T15:46:14.915Z,2.53
2023-02-01T15:48:47.109Z,2.93
2023-02-01T15:51:34.015Z,2.60
2023-02-01T15:54:08.569Z,3.17
2023-02-01T15:56:38.442Z,2.97
2023-02-01T15:59:19.356Z,3.30
2023-02-01T16:01:46.418Z,2.83
2023-02-01T16:04:16.055Z,3.40
2023-02-01T16:06:53.552Z,3.20
2023-02-01T16:09:26.103Z,3.20
2023-02-01T16:12:04.576Z,3.67
2023-02-01T16:14:32.816Z,3.30
2023-02-01T16:17:01.770Z,2.97
2023-02-01T16:19:31.051Z,3.47
2023-02-01T16:21:57.909Z,3.07
2023-02-01T16:24:26.861Z,3.43
2023-02-01T16:26:53.654Z,3.97
2023-02-01T16:29:22.381Z,4.67
2023-02-01T16:31:52.342Z,4.40
2023-02-01T16:34:19.271Z,4.20
2023-02-01T16:36:52.885Z,3.53
2023-02-01T16:39:21.295Z,3.90
2023-02-01T16:41:51.202Z,4.60
2023-02-01T16:44:20.392Z,4.60
2023-02-01T16:46:51.282Z,4.33
2023-02-01T16:49:25.446Z,4.23
2023-02-01T16:51:56.070Z,4.60
2023-02-01T16:54:25.232Z,4.53
2023-02-01T16:56:51.875Z,4.30
2023-02-01T16:59:18.642Z,4.80
2023-02-01T17:01:45.355Z,5.33
2023-02-01T17:04:12.583Z,4.47
2023-02-01T17:06:39.810Z,5.10
2023-02-01T17:09:07.369Z,5.43
2023-02-01T17:11:34.137Z,5.38
2023-02-01T17:14:22.529Z,5.20
2023-02-01T17:16:50.989Z,5.80
2023-02-01T17:19:24.371Z,5.37
2023-02-01T17:21:56.459Z,4.83
2023-02-01T17:24:35.757Z,5.75
2023-02-01T17:27:08.331Z,4.47
2023-02-01T17:29:37.421Z,5.00
2023-02-01T17:32:06.672Z,5.00
2023-02-01T17:34:35.793Z,4.80
2023-02-01T17:37:04.570Z,5.13
2023-02-01T17:39:49.817Z,5.23
2023-02-01T17:42:18.971Z,5.47
2023-02-01T17:44:45.660Z,5.47
2023-02-01T17:47:14.555Z,5.87
2023-02-01T17:49:41.213Z,4.90
2023-02-01T17:52:14.978Z,4.80
2023-02-01T17:54:41.615Z,7.03
2023-02-01T17:57:14.818Z,6.73
2023-02-01T17:59:41.460Z,6.07
2023-02-01T18:02:25.840Z,5.87
2023-02-01T18:04:52.648Z,7.10
2023-02-01T18:07:21.866Z,7.77
2023-02-01T18:09:48.596Z,6.80
2023-02-01T18:12:25.367Z,7.10
2023-02-01T18:14:52.138Z,7.10
2023-02-01T18:17:18.785Z,6.97
2023-02-01T18:19:47.687Z,6.03
2023-02-01T18:22:19.073Z,5.80
2023-02-01T18:24:48.245Z,5.60
2023-02-01T18:27:14.876Z,5.00
2023-02-01T18:29:41.531Z,4.47
2023-02-01T18:32:10.762Z,5.17
2023-02-01T18:34:40.896Z,4.77
2023-02-01T18:37:10.052Z,4.83
2023-02-01T18:39:39.456Z,4.63
2023-02-01T18:42:06.241Z,4.40
2023-02-01T18:44:35.107Z,4.75
2023-02-01T18:47:01.811Z,4.60
2023-02-01T18:49:28.489Z,4.37
2023-02-01T18:51:55.174Z,4.90
2023-02-01T18:54:21.851Z,5.07
2023-02-01T18:56:48.542Z,5.50
2023-02-01T18:59:17.366Z,5.53
2023-02-01T19:01:44.649Z,5.23
2023-02-01T19:04:24.486Z,5.37
2023-02-01T19:06:52.917Z,5.13
2023-02-01T19:09:21.782Z,4.13
2023-02-01T19:11:50.945Z,4.40
2023-02-01T19:14:20.019Z,4.60
2023-02-01T19:16:48.831Z,5.20
2023-02-01T19:19:15.474Z,4.70
2023-02-01T19:21:42.201Z,5.00
2023-02-01T19:24:11.206Z,4.70
2023-02-01T19:26:37.943Z,5.23
2023-02-01T19:29:06.814Z,4.63
2023-02-01T19:31:33.637Z,4.43
2023-02-01T19:34:00.627Z,4.20
2023-02-01T19:36:27.512Z,4.57
2023-02-01T19:38:56.471Z,4.50
2023-02-01T19:41:25.614Z,4.13
2023-02-01T19:43:54.578Z,4.00
2023-02-01T19:46:21.316Z,4.30
2023-02-01T19:48:47.958Z,4.00
2023-02-01T19:51:14.693Z,4.23
2023-02-01T19:53:49.176Z,4.93
2023-02-01T19:56:18.073Z,3.77
2023-02-01T19:58:51.010Z,4.60
2023-02-01T20:01:18.611Z,4.60
2023-02-01T20:03:47.462Z,4.27
2023-02-01T20:06:17.441Z,4.23
2023-02-01T20:08:48.475Z,3.80
2023-02-01T20:11:15.160Z,4.53
2023-02-01T20:13:41.858Z,4.00
2023-02-01T20:16:08.592Z,4.37
2023-02-01T20:18:38.942Z,4.00
2023-02-01T20:21:10.470Z,4.47
2023-02-01T20:23:37.273Z,4.10
2023-02-01T20:26:08.958Z,3.70
2023-02-01T20:28:38.487Z,3.87
2023-02-01T20:31:05.699Z,3.50
2023-02-01T20:33:35.286Z,4.65
2023-02-01T20:36:02.114Z,3.97
2023-02-01T20:38:31.048Z,3.70
2023-02-01T20:41:06.087Z,3.77
2023-02-01T20:43:33.474Z,3.50
2023-02-01T20:46:02.996Z,3.50
2023-02-01T20:48:30.585Z,3.10
2023-02-01T20:50:58.849Z,2.87
2023-02-01T20:53:28.189Z,3.10
2023-02-01T20:55:57.638Z,3.27
2023-02-01T20:58:25.100Z,2.93
2023-02-01T21:00:54.493Z,3.67
2023-02-01T21:03:24.015Z,3.40
2023-02-01T21:05:55.363Z,3.73
2023-02-01T21:08:22.392Z,3.23
2023-02-01T21:10:57.466Z,2.90
2023-02-01T21:13:25.965Z,3.43
2023-02-01T21:15:53.256Z,2.93
2023-02-01T21:18:23.171Z,2.97
2023-02-01T21:20:52.544Z,3.60
2023-02-01T21:23:21.686Z,3.33
2023-02-01T21:25:48.480Z,3.13
2023-02-01T21:28:17.786Z,3.00
2023-02-01T21:30:44.470Z,2.50
2023-02-01T21:33:13.594Z,3.53
2023-02-01T21:35:41.702Z,2.87
2023-02-01T21:38:09.931Z,3.00
2023-02-01T21:40:37.286Z,3.10
2023-02-01T21:43:06.441Z,2.77
2023-02-01T21:45:35.991Z,3.10
2023-02-01T21:48:07.044Z,2.67
2023-02-01T21:50:35.263Z,3.30
2023-02-01T21:53:02.091Z,3.00
2023-02-01T21:55:31.113Z,3.20
2023-02-01T21:57:59.976Z,3.10
2023-02-01T22:00:26.668Z,3.10
2023-02-01T22:02:53.442Z,3.30
2023-02-01T22:05:20.933Z,3.77
2023-02-01T22:07:47.594Z,3.10
2023-02-01T22:10:14.301Z,3.20
2023-02-01T22:12:43.140Z,3.20
2023-02-01T22:15:10.271Z,3.20
2023-02-01T22:17:39.412Z,4.00
2023-02-01T22:20:06.519Z,3.10
2023-02-01T22:22:35.571Z,3.70
2023-02-01T22:25:02.323Z,3.80
2023-02-01T22:27:54.766Z,2.90
2023-02-01T22:30:18.618Z,3.03
2023-02-01T22:32:45.376Z,2.80
2023-02-01T22:35:12.069Z,2.63
2023-02-01T22:37:41.528Z,3.10
2023-02-01T22:40:11.196Z,2.23
2023-02-01T22:42:40.451Z,2.53
2023-02-01T22:45:09.786Z,2.90
2023-02-01T22:47:36.407Z,2.63
2023-02-01T22:50:03.655Z,3.33
2023-02-01T22:52:32.883Z,3.17
2023-02-01T22:54:59.558Z,3.00
2023-02-01T22:57:26.250Z,2.50
2023-02-01T22:59:52.885Z,3.10
2023-02-01T23:02:21.947Z,3.10
2023-02-01T23:04:48.632Z,2.90
2023-02-01T23:07:17.903Z,2.87
2023-02-01T23:09:49.323Z,3.07
2023-02-01T23:12:18.184Z,3.30
2023-02-01T23:15:03.705Z,3.27
2023-02-01T23:17:30.376Z,2.97
2023-02-01T23:19:58.329Z,2.27
2023-02-01T23:22:27.277Z,2.70
2023-02-01T23:24:53.917Z,2.37
2023-02-01T23:27:20.649Z,2.50
2023-02-01T23:29:47.343Z,2.60
2023-02-01T23:32:14.057Z,2.70
2023-02-01T23:34:40.761Z,2.43
2023-02-01T23:37:09.902Z,2.40
2023-02-01T23:39:36.584Z,2.93
2023-02-01T23:42:04.778Z,2.30
2023-02-01T23:44:32.086Z,2.97
2023-02-01T23:47:01.504Z,2.67
2023-02-01T23:49:28.186Z,2.63
2023-02-01T23:51:57.515Z,2.50
2023-02-01T23:54:26.442Z,2.27
2023-02-01T23:56:53.220Z,2.17
2023-02-01T23:59:25.953Z,2.50
